sensor_id;sensor_type;location;lat;lon;timestamp;temperature;humidity
35457;DHT22;21575;51.538;-0.084;2022-08-19T00:00:25;20.10;99.90
35457;DHT22;21575;51.538;-0.084;2022-08-19T00:02:51;20.10;99.90
35457;DHT22;21575;51.538;-0.084;2022-08-19T00:05:17;20.10;99.90
35457;DHT22;21575;51.538;-0.084;2022-08-19T00:07:44;20.20;99.90
35457;DHT22;21575;51.538;-0.084;2022-08-19T00:10:12;20.20;99.90
35457;DHT22;21575;51.538;-0.084;2022-08-19T00:12:38;20.20;99.90
35457;DHT22;21575;51.538;-0.084;2022-08-19T00:15:07;20.20;99.90
35457;DHT22;21575;51.538;-0.084;2022-08-19T00:17:35;20.20;99.90
35457;DHT22;21575;51.538;-0.084;2022-08-19T00:20:02;20.20;99.90
35457;DHT22;21575;51.538;-0.084;2022-08-19T00:22:27;20.20;99.90
35457;DHT22;21575;51.538;-0.084;2022-08-19T00:24:54;20.20;99.90
35457;DHT22;21575;51.538;-0.084;2022-08-19T00:27:19;20.20;99.90
35457;DHT22;21575;51.538;-0.084;2022-08-19T00:29:45;20.20;99.90
35457;DHT22;21575;51.538;-0.084;2022-08-19T00:32:10;20.20;99.90
35457;DHT22;21575;51.538;-0.084;2022-08-19T00:34:37;20.20;99.90
35457;DHT22;21575;51.538;-0.084;2022-08-19T00:37:03;20.20;99.90
35457;DHT22;21575;51.538;-0.084;2022-08-19T00:39:28;20.10;99.90
35457;DHT22;21575;51.538;-0.084;2022-08-19T00:41:55;20.10;99.90
35457;DHT22;21575;51.538;-0.084;2022-08-19T00:44:25;20.00;99.90
35457;DHT22;21575;51.538;-0.084;2022-08-19T00:46:53;20.00;99.90
35457;DHT22;21575;51.538;-0.084;2022-08-19T00:49:31;20.00;99.90
35457;DHT22;21575;51.538;-0.084;2022-08-19T00:52:12;20.00;99.90
35457;DHT22;21575;51.538;-0.084;2022-08-19T00:54:40;20.00;99.90
35457;DHT22;21575;51.538;-0.084;2022-08-19T00:57:10;19.90;99.90
35457;DHT22;21575;51.538;-0.084;2022-08-19T00:59:42;20.00;99.90
35457;DHT22;21575;51.538;-0.084;2022-08-19T01:02:08;20.00;99.90
35457;DHT22;21575;51.538;-0.084;2022-08-19T01:04:34;20.00;99.90
35457;DHT22;21575;51.538;-0.084;2022-08-19T01:06:59;20.00;99.90
35457;DHT22;21575;51.538;-0.084;2022-08-19T01:09:26;20.00;99.90
35457;DHT22;21575;51.538;-0.084;2022-08-19T01:11:52;20.10;99.90
35457;DHT22;21575;51.538;-0.084;2022-08-19T01:14:18;20.10;99.90
35457;DHT22;21575;51.538;-0.084;2022-08-19T01:16:45;20.10;99.90
35457;DHT22;21575;51.538;-0.084;2022-08-19T01:19:31;20.10;99.90
35457;DHT22;21575;51.538;-0.084;2022-08-19T01:22:04;20.10;99.90
35457;DHT22;21575;51.538;-0.084;2022-08-19T01:24:31;20.00;99.90
35457;DHT22;21575;51.538;-0.084;2022-08-19T01:26:57;20.00;99.90
35457;DHT22;21575;51.538;-0.084;2022-08-19T01:29:23;20.00;99.90
35457;DHT22;21575;51.538;-0.084;2022-08-19T01:31:49;20.10;99.90
35457;DHT22;21575;51.538;-0.084;2022-08-19T01:34:18;20.10;99.90
35457;DHT22;21575;51.538;-0.084;2022-08-19T01:36:46;20.10;99.90
35457;DHT22;21575;51.538;-0.084;2022-08-19T01:39:16;20.10;99.90
35457;DHT22;21575;51.538;-0.084;2022-08-19T01:41:42;20.10;99.90
35457;DHT22;21575;51.538;-0.084;2022-08-19T01:44:09;20.10;99.90
35457;DHT22;21575;51.538;-0.084;2022-08-19T01:46:35;20.00;99.90
35457;DHT22;21575;51.538;-0.084;2022-08-19T01:49:02;20.10;99.90
35457;DHT22;21575;51.538;-0.084;2022-08-19T01:51:28;20.10;99.90
35457;DHT22;21575;51.538;-0.084;2022-08-19T01:53:56;20.10;99.90
35457;DHT22;21575;51.538;-0.084;2022-08-19T01:56:22;20.10;99.90
35457;DHT22;21575;51.538;-0.084;2022-08-19T01:58:57;20.10;99.90
35457;DHT22;21575;51.538;-0.084;2022-08-19T02:01:25;20.10;99.90
35457;DHT22;21575;51.538;-0.084;2022-08-19T02:03:51;20.10;99.90
35457;DHT22;21575;51.538;-0.084;2022-08-19T02:06:19;20.10;99.90
35457;DHT22;21575;51.538;-0.084;2022-08-19T02:08:44;20.10;99.90
35457;DHT22;21575;51.538;-0.084;2022-08-19T02:11:27;20.10;99.90
35457;DHT22;21575;51.538;-0.084;2022-08-19T02:13:55;20.10;99.90
35457;DHT22;21575;51.538;-0.084;2022-08-19T02:16:21;20.20;99.90
35457;DHT22;21575;51.538;-0.084;2022-08-19T02:18:47;20.20;99.90
35457;DHT22;21575;51.538;-0.084;2022-08-19T02:21:20;20.20;99.90
35457;DHT22;21575;51.538;-0.084;2022-08-19T02:23:46;20.20;99.90
35457;DHT22;21575;51.538;-0.084;2022-08-19T02:26:12;20.20;99.90
35457;DHT22;21575;51.538;-0.084;2022-08-19T02:28:39;20.20;99.90
35457;DHT22;21575;51.538;-0.084;2022-08-19T02:31:10;20.20;99.90
35457;DHT22;21575;51.538;-0.084;2022-08-19T02:33:37;20.20;99.90
35457;DHT22;21575;51.538;-0.084;2022-08-19T02:36:06;20.20;99.90
35457;DHT22;21575;51.538;-0.084;2022-08-19T02:38:32;20.20;99.90
35457;DHT22;21575;51.538;-0.084;2022-08-19T02:41:05;20.20;99.90
35457;DHT22;21575;51.538;-0.084;2022-08-19T02:43:33;20.20;99.90
35457;DHT22;21575;51.538;-0.084;2022-08-19T02:46:12;20.20;99.90
35457;DHT22;21575;51.538;-0.084;2022-08-19T02:48:38;20.20;99.90
35457;DHT22;21575;51.538;-0.084;2022-08-19T02:51:04;20.30;99.90
35457;DHT22;21575;51.538;-0.084;2022-08-19T02:53:30;20.20;99.90
35457;DHT22;21575;51.538;-0.084;2022-08-19T02:55:57;20.20;99.90
35457;DHT22;21575;51.538;-0.084;2022-08-19T02:58:22;20.20;99.90
35457;DHT22;21575;51.538;-0.084;2022-08-19T03:00:52;20.20;99.90
35457;DHT22;21575;51.538;-0.084;2022-08-19T03:03:21;20.20;99.90
35457;DHT22;21575;51.538;-0.084;2022-08-19T03:05:47;20.20;99.90
35457;DHT22;21575;51.538;-0.084;2022-08-19T03:08:13;20.20;99.90
35457;DHT22;21575;51.538;-0.084;2022-08-19T03:10:41;20.20;99.90
35457;DHT22;21575;51.538;-0.084;2022-08-19T03:13:10;20.30;99.90
35457;DHT22;21575;51.538;-0.084;2022-08-19T03:15:39;20.20;99.90
35457;DHT22;21575;51.538;-0.084;2022-08-19T03:18:05;20.30;99.90
35457;DHT22;21575;51.538;-0.084;2022-08-19T03:20:31;20.30;99.90
35457;DHT22;21575;51.538;-0.084;2022-08-19T03:22:56;20.20;99.90
35457;DHT22;21575;51.538;-0.084;2022-08-19T03:25:22;20.20;99.90
35457;DHT22;21575;51.538;-0.084;2022-08-19T03:27:48;20.10;99.90
35457;DHT22;21575;51.538;-0.084;2022-08-19T03:30:14;20.10;99.90
35457;DHT22;21575;51.538;-0.084;2022-08-19T03:32:39;20.10;99.90
35457;DHT22;21575;51.538;-0.084;2022-08-19T03:35:06;20.10;99.90
35457;DHT22;21575;51.538;-0.084;2022-08-19T03:37:31;20.10;99.90
35457;DHT22;21575;51.538;-0.084;2022-08-19T03:39:57;20.20;99.90
35457;DHT22;21575;51.538;-0.084;2022-08-19T03:42:23;20.10;99.90
35457;DHT22;21575;51.538;-0.084;2022-08-19T03:44:50;20.10;99.90
35457;DHT22;21575;51.538;-0.084;2022-08-19T03:47:15;20.10;99.90
35457;DHT22;21575;51.538;-0.084;2022-08-19T03:49:42;20.10;99.90
35457;DHT22;21575;51.538;-0.084;2022-08-19T03:52:08;20.10;99.90
35457;DHT22;21575;51.538;-0.084;2022-08-19T03:54:35;20.10;99.90
35457;DHT22;21575;51.538;-0.084;2022-08-19T03:57:00;20.10;99.90
35457;DHT22;21575;51.538;-0.084;2022-08-19T03:59:29;20.20;99.90
35457;DHT22;21575;51.538;-0.084;2022-08-19T04:01:57;20.20;99.90
35457;DHT22;21575;51.538;-0.084;2022-08-19T04:04:25;20.20;99.90
35457;DHT22;21575;51.538;-0.084;2022-08-19T04:06:51;20.20;99.90
35457;DHT22;21575;51.538;-0.084;2022-08-19T04:09:18;20.30;99.90
35457;DHT22;21575;51.538;-0.084;2022-08-19T04:11:52;20.20;99.90
35457;DHT22;21575;51.538;-0.084;2022-08-19T04:14:25;20.20;99.90
35457;DHT22;21575;51.538;-0.084;2022-08-19T04:16:52;20.20;99.90
35457;DHT22;21575;51.538;-0.084;2022-08-19T04:19:19;20.10;99.90
35457;DHT22;21575;51.538;-0.084;2022-08-19T04:21:47;20.10;99.90
35457;DHT22;21575;51.538;-0.084;2022-08-19T04:24:14;20.10;99.90
35457;DHT22;21575;51.538;-0.084;2022-08-19T04:26:40;20.20;99.90
35457;DHT22;21575;51.538;-0.084;2022-08-19T04:29:12;20.10;99.90
35457;DHT22;21575;51.538;-0.084;2022-08-19T04:31:39;20.10;99.90
35457;DHT22;21575;51.538;-0.084;2022-08-19T04:34:09;20.10;99.90
35457;DHT22;21575;51.538;-0.084;2022-08-19T04:36:37;20.00;99.90
35457;DHT22;21575;51.538;-0.084;2022-08-19T04:39:06;20.00;99.90
35457;DHT22;21575;51.538;-0.084;2022-08-19T04:41:33;20.00;99.90
35457;DHT22;21575;51.538;-0.084;2022-08-19T04:44:17;20.00;99.90
35457;DHT22;21575;51.538;-0.084;2022-08-19T04:46:44;20.10;99.90
35457;DHT22;21575;51.538;-0.084;2022-08-19T04:49:10;20.10;99.90
35457;DHT22;21575;51.538;-0.084;2022-08-19T04:51:39;20.00;99.90
35457;DHT22;21575;51.538;-0.084;2022-08-19T04:54:05;20.00;99.90
35457;DHT22;21575;51.538;-0.084;2022-08-19T04:56:31;20.00;99.90
35457;DHT22;21575;51.538;-0.084;2022-08-19T04:58:57;19.90;99.90
35457;DHT22;21575;51.538;-0.084;2022-08-19T05:01:27;19.80;99.90
35457;DHT22;21575;51.538;-0.084;2022-08-19T05:03:54;19.90;99.90
35457;DHT22;21575;51.538;-0.084;2022-08-19T05:06:21;19.90;99.90
35457;DHT22;21575;51.538;-0.084;2022-08-19T05:08:47;19.80;99.90
35457;DHT22;21575;51.538;-0.084;2022-08-19T05:11:19;19.80;99.90
35457;DHT22;21575;51.538;-0.084;2022-08-19T05:13:46;19.80;99.90
35457;DHT22;21575;51.538;-0.084;2022-08-19T05:16:14;19.80;99.90
35457;DHT22;21575;51.538;-0.084;2022-08-19T05:18:41;19.80;99.90
35457;DHT22;21575;51.538;-0.084;2022-08-19T05:21:26;19.80;99.90
35457;DHT22;21575;51.538;-0.084;2022-08-19T05:24:11;19.80;99.90
35457;DHT22;21575;51.538;-0.084;2022-08-19T05:26:39;19.80;99.90
35457;DHT22;21575;51.538;-0.084;2022-08-19T05:29:06;19.90;99.90
35457;DHT22;21575;51.538;-0.084;2022-08-19T05:31:33;19.80;99.90
35457;DHT22;21575;51.538;-0.084;2022-08-19T05:33:58;19.90;99.90
35457;DHT22;21575;51.538;-0.084;2022-08-19T05:36:32;19.90;99.90
35457;DHT22;21575;51.538;-0.084;2022-08-19T05:39:00;19.90;99.90
35457;DHT22;21575;51.538;-0.084;2022-08-19T05:41:25;20.00;99.90
35457;DHT22;21575;51.538;-0.084;2022-08-19T05:43:57;20.00;99.90
35457;DHT22;21575;51.538;-0.084;2022-08-19T05:46:23;20.00;99.90
35457;DHT22;21575;51.538;-0.084;2022-08-19T05:48:49;20.10;99.90
35457;DHT22;21575;51.538;-0.084;2022-08-19T05:51:15;20.10;99.90
35457;DHT22;21575;51.538;-0.084;2022-08-19T05:53:42;20.20;99.90
35457;DHT22;21575;51.538;-0.084;2022-08-19T05:56:13;20.20;99.90
35457;DHT22;21575;51.538;-0.084;2022-08-19T05:58:41;20.30;99.90
35457;DHT22;21575;51.538;-0.084;2022-08-19T06:01:15;20.30;99.90
35457;DHT22;21575;51.538;-0.084;2022-08-19T06:03:42;20.30;99.90
35457;DHT22;21575;51.538;-0.084;2022-08-19T06:06:09;20.30;99.90
35457;DHT22;21575;51.538;-0.084;2022-08-19T06:08:36;20.40;99.90
35457;DHT22;21575;51.538;-0.084;2022-08-19T06:11:39;20.30;99.90
35457;DHT22;21575;51.538;-0.084;2022-08-19T06:14:13;20.40;99.90
35457;DHT22;21575;51.538;-0.084;2022-08-19T06:16:40;20.40;99.90
35457;DHT22;21575;51.538;-0.084;2022-08-19T06:19:10;20.40;99.90
35457;DHT22;21575;51.538;-0.084;2022-08-19T06:21:38;20.40;99.90
35457;DHT22;21575;51.538;-0.084;2022-08-19T06:24:08;20.40;99.90
35457;DHT22;21575;51.538;-0.084;2022-08-19T06:26:38;20.40;99.90
35457;DHT22;21575;51.538;-0.084;2022-08-19T06:29:08;20.40;99.90
35457;DHT22;21575;51.538;-0.084;2022-08-19T06:31:35;20.50;99.90
35457;DHT22;21575;51.538;-0.084;2022-08-19T06:34:04;20.40;99.90
35457;DHT22;21575;51.538;-0.084;2022-08-19T06:36:36;20.50;99.90
35457;DHT22;21575;51.538;-0.084;2022-08-19T06:39:07;20.50;99.90
35457;DHT22;21575;51.538;-0.084;2022-08-19T06:41:38;20.50;99.90
35457;DHT22;21575;51.538;-0.084;2022-08-19T06:44:05;20.50;99.90
35457;DHT22;21575;51.538;-0.084;2022-08-19T06:46:31;20.60;99.90
35457;DHT22;21575;51.538;-0.084;2022-08-19T06:48:57;20.50;99.90
35457;DHT22;21575;51.538;-0.084;2022-08-19T06:51:23;20.50;99.90
35457;DHT22;21575;51.538;-0.084;2022-08-19T06:53:51;20.50;99.90
35457;DHT22;21575;51.538;-0.084;2022-08-19T06:56:22;20.50;99.90
35457;DHT22;21575;51.538;-0.084;2022-08-19T06:58:50;20.50;99.90
35457;DHT22;21575;51.538;-0.084;2022-08-19T07:01:19;20.60;99.90
35457;DHT22;21575;51.538;-0.084;2022-08-19T07:03:45;20.60;99.90
35457;DHT22;21575;51.538;-0.084;2022-08-19T07:06:13;20.60;99.90
35457;DHT22;21575;51.538;-0.084;2022-08-19T07:08:41;20.50;99.90
35457;DHT22;21575;51.538;-0.084;2022-08-19T07:11:09;20.60;99.90
35457;DHT22;21575;51.538;-0.084;2022-08-19T07:13:37;20.60;99.90
35457;DHT22;21575;51.538;-0.084;2022-08-19T07:16:07;20.60;99.90
35457;DHT22;21575;51.538;-0.084;2022-08-19T07:18:33;20.60;99.90
35457;DHT22;21575;51.538;-0.084;2022-08-19T07:21:13;20.70;99.90
35457;DHT22;21575;51.538;-0.084;2022-08-19T07:23:40;20.70;99.90
35457;DHT22;21575;51.538;-0.084;2022-08-19T07:26:17;20.60;99.90
35457;DHT22;21575;51.538;-0.084;2022-08-19T07:28:44;20.60;99.90
35457;DHT22;21575;51.538;-0.084;2022-08-19T07:31:19;20.70;99.90
35457;DHT22;21575;51.538;-0.084;2022-08-19T07:33:47;20.70;99.90
35457;DHT22;21575;51.538;-0.084;2022-08-19T07:36:14;20.80;99.90
35457;DHT22;21575;51.538;-0.084;2022-08-19T07:38:42;20.80;99.90
35457;DHT22;21575;51.538;-0.084;2022-08-19T07:41:14;20.90;99.90
35457;DHT22;21575;51.538;-0.084;2022-08-19T07:43:40;21.00;99.90
35457;DHT22;21575;51.538;-0.084;2022-08-19T07:46:06;21.00;99.90
35457;DHT22;21575;51.538;-0.084;2022-08-19T07:48:32;21.10;99.90
35457;DHT22;21575;51.538;-0.084;2022-08-19T07:51:00;21.10;99.90
35457;DHT22;21575;51.538;-0.084;2022-08-19T07:53:30;21.20;99.90
35457;DHT22;21575;51.538;-0.084;2022-08-19T07:55:56;21.20;99.90
35457;DHT22;21575;51.538;-0.084;2022-08-19T07:58:25;21.20;99.90
35457;DHT22;21575;51.538;-0.084;2022-08-19T08:00:51;21.20;99.90
35457;DHT22;21575;51.538;-0.084;2022-08-19T08:03:19;21.20;99.90
35457;DHT22;21575;51.538;-0.084;2022-08-19T08:05:45;21.30;99.90
35457;DHT22;21575;51.538;-0.084;2022-08-19T08:08:31;21.20;99.90
35457;DHT22;21575;51.538;-0.084;2022-08-19T08:11:18;21.30;99.90
35457;DHT22;21575;51.538;-0.084;2022-08-19T08:13:45;21.30;99.90
35457;DHT22;21575;51.538;-0.084;2022-08-19T08:16:11;21.20;99.90
35457;DHT22;21575;51.538;-0.084;2022-08-19T08:18:36;21.30;99.90
35457;DHT22;21575;51.538;-0.084;2022-08-19T08:21:06;21.40;99.90
35457;DHT22;21575;51.538;-0.084;2022-08-19T08:23:32;21.40;99.90
35457;DHT22;21575;51.538;-0.084;2022-08-19T08:25:58;21.40;99.90
35457;DHT22;21575;51.538;-0.084;2022-08-19T08:28:25;21.40;99.90
35457;DHT22;21575;51.538;-0.084;2022-08-19T08:30:52;21.40;99.90
35457;DHT22;21575;51.538;-0.084;2022-08-19T08:33:21;21.50;99.90
35457;DHT22;21575;51.538;-0.084;2022-08-19T08:35:47;21.40;99.90
35457;DHT22;21575;51.538;-0.084;2022-08-19T08:38:13;21.40;99.90
35457;DHT22;21575;51.538;-0.084;2022-08-19T08:40:53;21.40;99.90
35457;DHT22;21575;51.538;-0.084;2022-08-19T08:43:33;21.40;99.90
35457;DHT22;21575;51.538;-0.084;2022-08-19T08:51:05;21.30;99.90
35457;DHT22;21575;51.538;-0.084;2022-08-19T08:53:34;21.20;99.90
35457;DHT22;21575;51.538;-0.084;2022-08-19T08:56:03;21.10;99.90
35457;DHT22;21575;51.538;-0.084;2022-08-19T08:58:51;21.00;99.90
35457;DHT22;21575;51.538;-0.084;2022-08-19T09:01:19;21.00;99.90
35457;DHT22;21575;51.538;-0.084;2022-08-19T09:03:45;21.00;99.90
35457;DHT22;21575;51.538;-0.084;2022-08-19T09:16:45;21.40;99.90
35457;DHT22;21575;51.538;-0.084;2022-08-19T09:19:10;21.40;99.90
35457;DHT22;21575;51.538;-0.084;2022-08-19T09:21:37;21.50;99.90
35457;DHT22;21575;51.538;-0.084;2022-08-19T09:24:04;21.60;99.90
35457;DHT22;21575;51.538;-0.084;2022-08-19T09:26:31;21.60;99.90
35457;DHT22;21575;51.538;-0.084;2022-08-19T09:28:58;21.60;99.90
35457;DHT22;21575;51.538;-0.084;2022-08-19T09:31:27;21.60;99.90
35457;DHT22;21575;51.538;-0.084;2022-08-19T09:33:53;21.60;99.90
35457;DHT22;21575;51.538;-0.084;2022-08-19T09:36:24;21.70;99.90
35457;DHT22;21575;51.538;-0.084;2022-08-19T09:38:52;21.70;99.90
35457;DHT22;21575;51.538;-0.084;2022-08-19T09:41:19;21.80;99.90
35457;DHT22;21575;51.538;-0.084;2022-08-19T09:43:48;21.80;99.90
35457;DHT22;21575;51.538;-0.084;2022-08-19T09:46:18;21.90;99.90
35457;DHT22;21575;51.538;-0.084;2022-08-19T09:48:47;21.90;99.90
35457;DHT22;21575;51.538;-0.084;2022-08-19T09:51:16;22.00;99.90
35457;DHT22;21575;51.538;-0.084;2022-08-19T09:53:43;22.10;99.90
35457;DHT22;21575;51.538;-0.084;2022-08-19T09:56:10;22.30;99.90
35457;DHT22;21575;51.538;-0.084;2022-08-19T09:58:36;22.40;99.90
35457;DHT22;21575;51.538;-0.084;2022-08-19T10:01:03;22.50;99.90
35457;DHT22;21575;51.538;-0.084;2022-08-19T10:03:31;22.50;99.90
35457;DHT22;21575;51.538;-0.084;2022-08-19T10:05:59;22.60;99.90
35457;DHT22;21575;51.538;-0.084;2022-08-19T10:08:28;22.70;99.90
35457;DHT22;21575;51.538;-0.084;2022-08-19T10:10:55;22.80;99.90
35457;DHT22;21575;51.538;-0.084;2022-08-19T10:13:24;23.00;99.90
35457;DHT22;21575;51.538;-0.084;2022-08-19T10:15:56;23.10;99.90
35457;DHT22;21575;51.538;-0.084;2022-08-19T10:18:27;23.20;99.90
35457;DHT22;21575;51.538;-0.084;2022-08-19T10:21:01;23.30;99.90
35457;DHT22;21575;51.538;-0.084;2022-08-19T10:23:27;23.30;99.90
35457;DHT22;21575;51.538;-0.084;2022-08-19T10:25:59;23.30;99.90
35457;DHT22;21575;51.538;-0.084;2022-08-19T10:28:25;23.30;99.90
35457;DHT22;21575;51.538;-0.084;2022-08-19T10:30:51;23.20;99.90
35457;DHT22;21575;51.538;-0.084;2022-08-19T10:33:17;23.20;99.90
35457;DHT22;21575;51.538;-0.084;2022-08-19T10:35:42;23.10;99.90
35457;DHT22;21575;51.538;-0.084;2022-08-19T10:38:08;23.00;99.90
35457;DHT22;21575;51.538;-0.084;2022-08-19T10:40:34;23.00;99.90
35457;DHT22;21575;51.538;-0.084;2022-08-19T10:43:00;23.00;99.90
35457;DHT22;21575;51.538;-0.084;2022-08-19T10:45:25;23.10;99.90
35457;DHT22;21575;51.538;-0.084;2022-08-19T10:47:55;23.10;99.90
35457;DHT22;21575;51.538;-0.084;2022-08-19T10:50:21;23.20;99.90
35457;DHT22;21575;51.538;-0.084;2022-08-19T10:53:07;23.20;99.90
35457;DHT22;21575;51.538;-0.084;2022-08-19T10:55:36;23.20;99.90
35457;DHT22;21575;51.538;-0.084;2022-08-19T10:58:21;23.20;99.90
35457;DHT22;21575;51.538;-0.084;2022-08-19T11:00:56;23.20;99.90
35457;DHT22;21575;51.538;-0.084;2022-08-19T11:03:22;23.10;99.90
35457;DHT22;21575;51.538;-0.084;2022-08-19T11:06:04;23.10;99.90
35457;DHT22;21575;51.538;-0.084;2022-08-19T11:08:30;23.20;99.90
35457;DHT22;21575;51.538;-0.084;2022-08-19T11:10:59;23.30;99.90
35457;DHT22;21575;51.538;-0.084;2022-08-19T11:13:30;23.40;99.90
35457;DHT22;21575;51.538;-0.084;2022-08-19T11:16:00;23.50;99.90
35457;DHT22;21575;51.538;-0.084;2022-08-19T11:18:27;23.60;99.90
35457;DHT22;21575;51.538;-0.084;2022-08-19T11:20:52;23.80;99.90
35457;DHT22;21575;51.538;-0.084;2022-08-19T11:23:18;24.00;99.90
35457;DHT22;21575;51.538;-0.084;2022-08-19T11:25:44;24.10;99.90
35457;DHT22;21575;51.538;-0.084;2022-08-19T11:28:11;24.20;99.90
35457;DHT22;21575;51.538;-0.084;2022-08-19T11:30:38;24.10;99.90
35457;DHT22;21575;51.538;-0.084;2022-08-19T11:33:04;24.10;99.90
35457;DHT22;21575;51.538;-0.084;2022-08-19T11:35:29;24.10;99.90
35457;DHT22;21575;51.538;-0.084;2022-08-19T11:37:55;24.10;99.90
35457;DHT22;21575;51.538;-0.084;2022-08-19T11:40:26;24.00;99.90
35457;DHT22;21575;51.538;-0.084;2022-08-19T11:42:52;23.90;99.90
35457;DHT22;21575;51.538;-0.084;2022-08-19T11:45:21;24.00;99.90
35457;DHT22;21575;51.538;-0.084;2022-08-19T11:47:47;24.00;99.90
35457;DHT22;21575;51.538;-0.084;2022-08-19T11:50:14;24.00;99.90
35457;DHT22;21575;51.538;-0.084;2022-08-19T11:52:40;24.10;99.90
35457;DHT22;21575;51.538;-0.084;2022-08-19T11:55:06;24.10;99.90
35457;DHT22;21575;51.538;-0.084;2022-08-19T11:57:32;24.10;99.90
35457;DHT22;21575;51.538;-0.084;2022-08-19T11:59:58;24.20;99.90
35457;DHT22;21575;51.538;-0.084;2022-08-19T12:02:23;24.30;99.90
35457;DHT22;21575;51.538;-0.084;2022-08-19T12:04:49;24.40;99.90
35457;DHT22;21575;51.538;-0.084;2022-08-19T12:07:15;24.60;99.90
35457;DHT22;21575;51.538;-0.084;2022-08-19T12:09:41;24.60;99.90
35457;DHT22;21575;51.538;-0.084;2022-08-19T12:12:07;24.60;99.90
35457;DHT22;21575;51.538;-0.084;2022-08-19T12:14:32;24.50;99.90
35457;DHT22;21575;51.538;-0.084;2022-08-19T12:16:59;24.20;99.90
35457;DHT22;21575;51.538;-0.084;2022-08-19T12:19:25;24.00;99.90
35457;DHT22;21575;51.538;-0.084;2022-08-19T12:21:51;23.80;99.90
35457;DHT22;21575;51.538;-0.084;2022-08-19T12:24:20;23.80;99.90
35457;DHT22;21575;51.538;-0.084;2022-08-19T12:26:49;23.70;99.90
35457;DHT22;21575;51.538;-0.084;2022-08-19T12:29:15;23.80;99.90
35457;DHT22;21575;51.538;-0.084;2022-08-19T12:31:41;23.80;99.90
35457;DHT22;21575;51.538;-0.084;2022-08-19T12:34:06;23.90;99.90
35457;DHT22;21575;51.538;-0.084;2022-08-19T12:36:33;23.90;99.90
35457;DHT22;21575;51.538;-0.084;2022-08-19T12:38:59;23.90;99.90
35457;DHT22;21575;51.538;-0.084;2022-08-19T12:41:25;24.00;99.90
35457;DHT22;21575;51.538;-0.084;2022-08-19T12:43:51;24.10;99.90
35457;DHT22;21575;51.538;-0.084;2022-08-19T12:46:18;24.20;99.90
35457;DHT22;21575;51.538;-0.084;2022-08-19T12:48:44;24.30;99.90
35457;DHT22;21575;51.538;-0.084;2022-08-19T12:51:13;24.40;99.90
35457;DHT22;21575;51.538;-0.084;2022-08-19T12:53:39;24.40;99.90
35457;DHT22;21575;51.538;-0.084;2022-08-19T12:56:05;24.30;99.90
35457;DHT22;21575;51.538;-0.084;2022-08-19T12:58:31;24.40;99.90
35457;DHT22;21575;51.538;-0.084;2022-08-19T13:01:05;24.30;99.90
35457;DHT22;21575;51.538;-0.084;2022-08-19T13:03:31;24.40;99.90
35457;DHT22;21575;51.538;-0.084;2022-08-19T13:05:56;24.50;99.90
35457;DHT22;21575;51.538;-0.084;2022-08-19T13:08:22;24.70;99.90
35457;DHT22;21575;51.538;-0.084;2022-08-19T13:10:48;24.80;99.90
35457;DHT22;21575;51.538;-0.084;2022-08-19T13:13:13;24.90;99.90
35457;DHT22;21575;51.538;-0.084;2022-08-19T13:15:41;25.00;99.90
35457;DHT22;21575;51.538;-0.084;2022-08-19T13:18:08;24.90;99.90
35457;DHT22;21575;51.538;-0.084;2022-08-19T13:20:35;24.90;99.90
35457;DHT22;21575;51.538;-0.084;2022-08-19T13:23:01;24.90;99.90
35457;DHT22;21575;51.538;-0.084;2022-08-19T13:25:27;24.90;99.90
35457;DHT22;21575;51.538;-0.084;2022-08-19T13:27:52;24.80;99.90
35457;DHT22;21575;51.538;-0.084;2022-08-19T13:30:21;24.80;99.90
35457;DHT22;21575;51.538;-0.084;2022-08-19T13:33:05;24.90;99.90
35457;DHT22;21575;51.538;-0.084;2022-08-19T13:35:48;24.90;99.90
35457;DHT22;21575;51.538;-0.084;2022-08-19T13:38:18;24.70;99.90
35457;DHT22;21575;51.538;-0.084;2022-08-19T13:40:44;24.60;99.90
35457;DHT22;21575;51.538;-0.084;2022-08-19T13:43:10;24.60;99.90
35457;DHT22;21575;51.538;-0.084;2022-08-19T13:45:36;24.50;99.90
35457;DHT22;21575;51.538;-0.084;2022-08-19T13:48:04;24.40;99.90
35457;DHT22;21575;51.538;-0.084;2022-08-19T13:50:38;24.30;99.90
35457;DHT22;21575;51.538;-0.084;2022-08-19T13:53:07;24.30;99.90
35457;DHT22;21575;51.538;-0.084;2022-08-19T13:55:33;24.40;99.90
35457;DHT22;21575;51.538;-0.084;2022-08-19T13:58:00;24.50;99.90
35457;DHT22;21575;51.538;-0.084;2022-08-19T14:00:33;24.50;99.60
35457;DHT22;21575;51.538;-0.084;2022-08-19T14:02:59;24.50;98.80
35457;DHT22;21575;51.538;-0.084;2022-08-19T14:05:26;24.40;98.70
35457;DHT22;21575;51.538;-0.084;2022-08-19T14:07:52;24.30;98.10
35457;DHT22;21575;51.538;-0.084;2022-08-19T14:10:19;24.30;98.10
35457;DHT22;21575;51.538;-0.084;2022-08-19T14:12:45;24.30;98.30
35457;DHT22;21575;51.538;-0.084;2022-08-19T14:15:12;24.20;97.70
35457;DHT22;21575;51.538;-0.084;2022-08-19T14:17:41;24.20;98.30
35457;DHT22;21575;51.538;-0.084;2022-08-19T14:20:08;24.10;98.30
35457;DHT22;21575;51.538;-0.084;2022-08-19T14:22:37;24.10;99.00
35457;DHT22;21575;51.538;-0.084;2022-08-19T14:25:04;24.20;98.10
35457;DHT22;21575;51.538;-0.084;2022-08-19T14:27:37;24.30;97.90
35457;DHT22;21575;51.538;-0.084;2022-08-19T14:30:04;24.30;97.80
35457;DHT22;21575;51.538;-0.084;2022-08-19T14:32:30;24.30;97.20
35457;DHT22;21575;51.538;-0.084;2022-08-19T14:34:55;24.30;97.20
35457;DHT22;21575;51.538;-0.084;2022-08-19T14:37:21;24.30;96.30
35457;DHT22;21575;51.538;-0.084;2022-08-19T14:39:47;24.20;95.60
35457;DHT22;21575;51.538;-0.084;2022-08-19T14:42:13;24.10;95.10
35457;DHT22;21575;51.538;-0.084;2022-08-19T14:44:40;24.10;95.30
35457;DHT22;21575;51.538;-0.084;2022-08-19T14:47:06;24.10;93.60
35457;DHT22;21575;51.538;-0.084;2022-08-19T14:49:33;24.00;94.20
35457;DHT22;21575;51.538;-0.084;2022-08-19T14:51:58;24.10;94.10
35457;DHT22;21575;51.538;-0.084;2022-08-19T14:54:24;24.10;93.90
35457;DHT22;21575;51.538;-0.084;2022-08-19T14:56:50;24.00;93.80
35457;DHT22;21575;51.538;-0.084;2022-08-19T14:59:16;24.00;94.00
35457;DHT22;21575;51.538;-0.084;2022-08-19T15:01:42;24.00;94.90
35457;DHT22;21575;51.538;-0.084;2022-08-19T15:04:07;24.00;94.70
35457;DHT22;21575;51.538;-0.084;2022-08-19T15:06:33;24.00;94.60
35457;DHT22;21575;51.538;-0.084;2022-08-19T15:08:59;24.00;95.10
35457;DHT22;21575;51.538;-0.084;2022-08-19T15:11:27;24.00;95.40
35457;DHT22;21575;51.538;-0.084;2022-08-19T15:13:54;23.90;95.40
35457;DHT22;21575;51.538;-0.084;2022-08-19T15:16:20;23.90;95.40
35457;DHT22;21575;51.538;-0.084;2022-08-19T15:18:49;23.90;95.50
35457;DHT22;21575;51.538;-0.084;2022-08-19T15:21:16;23.90;95.70
35457;DHT22;21575;51.538;-0.084;2022-08-19T15:23:44;24.00;96.30
35457;DHT22;21575;51.538;-0.084;2022-08-19T15:26:10;24.00;95.30
35457;DHT22;21575;51.538;-0.084;2022-08-19T15:28:36;23.90;95.30
35457;DHT22;21575;51.538;-0.084;2022-08-19T15:31:03;23.90;95.60
35457;DHT22;21575;51.538;-0.084;2022-08-19T15:33:31;23.80;95.40
35457;DHT22;21575;51.538;-0.084;2022-08-19T15:35:57;23.70;95.40